sensor_id;sensor_type;location;lat;lon;timestamp;P1;durP1;ratioP1;P2;durP2;ratioP2
438;SDS011;206;48.782;9.252;2022-10-16T00:00:42;4.30;;;2.90;;
438;SDS011;206;48.782;9.252;2022-10-16T00:03:08;3.40;;;2.47;;
438;SDS011;206;48.782;9.252;2022-10-16T00:05:38;2.70;;;2.23;;
438;SDS011;206;48.782;9.252;2022-10-16T00:08:09;3.80;;;2.93;;
438;SDS011;206;48.782;9.252;2022-10-16T00:10:38;6.43;;;3.83;;
438;SDS011;206;48.782;9.252;2022-10-16T00:13:04;4.70;;;2.90;;
438;SDS011;206;48.782;9.252;2022-10-16T00:15:33;4.90;;;2.60;;
438;SDS011;206;48.782;9.252;2022-10-16T00:18:01;3.73;;;2.57;;
438;SDS011;206;48.782;9.252;2022-10-16T00:20:27;2.70;;;2.47;;
438;SDS011;206;48.782;9.252;2022-10-16T00:22:53;8.23;;;3.17;;
438;SDS011;206;48.782;9.252;2022-10-16T00:25:18;5.37;;;3.20;;
438;SDS011;206;48.782;9.252;2022-10-16T00:27:44;4.20;;;2.97;;
438;SDS011;206;48.782;9.252;2022-10-16T00:30:10;3.90;;;3.20;;
438;SDS011;206;48.782;9.252;2022-10-16T00:32:36;6.10;;;3.17;;
438;SDS011;206;48.782;9.252;2022-10-16T00:35:01;4.37;;;2.80;;
438;SDS011;206;48.782;9.252;2022-10-16T00:37:28;3.80;;;2.67;;
438;SDS011;206;48.782;9.252;2022-10-16T00:39:54;7.70;;;3.67;;
438;SDS011;206;48.782;9.252;2022-10-16T00:42:20;3.57;;;2.90;;
438;SDS011;206;48.782;9.252;2022-10-16T00:44:51;9.33;;;3.30;;
438;SDS011;206;48.782;9.252;2022-10-16T00:47:41;4.37;;;3.10;;
438;SDS011;206;48.782;9.252;2022-10-16T00:52:43;4.43;;;2.77;;
438;SDS011;206;48.782;9.252;2022-10-16T00:55:11;3.00;;;2.77;;
438;SDS011;206;48.782;9.252;2022-10-16T00:57:38;4.67;;;3.33;;
438;SDS011;206;48.782;9.252;2022-10-16T01:00:05;5.23;;;3.10;;
438;SDS011;206;48.782;9.252;2022-10-16T01:02:33;3.57;;;2.63;;
438;SDS011;206;48.782;9.252;2022-10-16T01:04:58;9.23;;;3.60;;
438;SDS011;206;48.782;9.252;2022-10-16T01:13:19;4.13;;;2.87;;
438;SDS011;206;48.782;9.252;2022-10-16T01:15:56;5.40;;;2.70;;
438;SDS011;206;48.782;9.252;2022-10-16T01:18:43;2.93;;;2.80;;
438;SDS011;206;48.782;9.252;2022-10-16T01:21:13;3.13;;;2.27;;
438;SDS011;206;48.782;9.252;2022-10-16T01:23:51;3.40;;;2.50;;
438;SDS011;206;48.782;9.252;2022-10-16T01:29:40;3.37;;;2.27;;
438;SDS011;206;48.782;9.252;2022-10-16T01:32:11;5.87;;;3.03;;
438;SDS011;206;48.782;9.252;2022-10-16T01:34:48;4.00;;;3.20;;
438;SDS011;206;48.782;9.252;2022-10-16T01:37:36;2.70;;;2.50;;
438;SDS011;206;48.782;9.252;2022-10-16T01:40:09;6.10;;;3.30;;
438;SDS011;206;48.782;9.252;2022-10-16T01:42:43;3.10;;;2.90;;
438;SDS011;206;48.782;9.252;2022-10-16T01:45:15;2.80;;;2.53;;
438;SDS011;206;48.782;9.252;2022-10-16T01:47:44;4.90;;;2.60;;
438;SDS011;206;48.782;9.252;2022-10-16T01:50:11;3.87;;;2.93;;
438;SDS011;206;48.782;9.252;2022-10-16T01:52:40;7.60;;;2.73;;
438;SDS011;206;48.782;9.252;2022-10-16T01:55:10;6.47;;;2.33;;
438;SDS011;206;48.782;9.252;2022-10-16T01:57:39;2.87;;;2.67;;
438;SDS011;206;48.782;9.252;2022-10-16T02:00:10;3.47;;;2.60;;
438;SDS011;206;48.782;9.252;2022-10-16T02:02:42;3.70;;;3.23;;
438;SDS011;206;48.782;9.252;2022-10-16T02:05:13;5.00;;;2.87;;
438;SDS011;206;48.782;9.252;2022-10-16T02:07:55;8.37;;;3.37;;
438;SDS011;206;48.782;9.252;2022-10-16T02:10:21;4.43;;;2.60;;
438;SDS011;206;48.782;9.252;2022-10-16T02:12:50;5.83;;;2.60;;
438;SDS011;206;48.782;9.252;2022-10-16T02:15:21;5.10;;;3.10;;
438;SDS011;206;48.782;9.252;2022-10-16T02:17:46;4.90;;;2.30;;
438;SDS011;206;48.782;9.252;2022-10-16T02:20:12;3.73;;;3.20;;
438;SDS011;206;48.782;9.252;2022-10-16T02:22:39;3.40;;;2.83;;
438;SDS011;206;48.782;9.252;2022-10-16T02:28:02;2.87;;;2.63;;
438;SDS011;206;48.782;9.252;2022-10-16T02:30:33;5.53;;;2.50;;
438;SDS011;206;48.782;9.252;2022-10-16T02:33:03;10.67;;;3.20;;
438;SDS011;206;48.782;9.252;2022-10-16T02:35:32;2.60;;;2.40;;
438;SDS011;206;48.782;9.252;2022-10-16T02:37:58;3.60;;;3.40;;
438;SDS011;206;48.782;9.252;2022-10-16T02:40:24;6.40;;;3.40;;
438;SDS011;206;48.782;9.252;2022-10-16T02:42:52;5.00;;;2.77;;
438;SDS011;206;48.782;9.252;2022-10-16T02:45:19;5.33;;;2.63;;
438;SDS011;206;48.782;9.252;2022-10-16T02:47:45;3.70;;;2.90;;
438;SDS011;206;48.782;9.252;2022-10-16T02:50:10;5.90;;;2.90;;
438;SDS011;206;48.782;9.252;2022-10-16T02:52:36;4.40;;;3.23;;
438;SDS011;206;48.782;9.252;2022-10-16T02:55:01;6.07;;;2.70;;
438;SDS011;206;48.782;9.252;2022-10-16T02:57:27;5.53;;;3.10;;
438;SDS011;206;48.782;9.252;2022-10-16T02:59:53;9.10;;;3.77;;
438;SDS011;206;48.782;9.252;2022-10-16T03:02:18;2.90;;;2.70;;
438;SDS011;206;48.782;9.252;2022-10-16T03:04:44;2.60;;;2.40;;
438;SDS011;206;48.782;9.252;2022-10-16T03:07:10;4.50;;;3.20;;
438;SDS011;206;48.782;9.252;2022-10-16T03:09:35;2.77;;;2.60;;
438;SDS011;206;48.782;9.252;2022-10-16T03:12:01;5.07;;;2.40;;
438;SDS011;206;48.782;9.252;2022-10-16T03:14:27;5.10;;;2.50;;
438;SDS011;206;48.782;9.252;2022-10-16T03:16:52;3.40;;;3.00;;
438;SDS011;206;48.782;9.252;2022-10-16T03:19:18;4.70;;;3.03;;
438;SDS011;206;48.782;9.252;2022-10-16T03:21:44;6.63;;;2.80;;
438;SDS011;206;48.782;9.252;2022-10-16T03:24:10;3.57;;;2.53;;
438;SDS011;206;48.782;9.252;2022-10-16T03:26:35;10.73;;;2.97;;
438;SDS011;206;48.782;9.252;2022-10-16T03:29:01;5.80;;;2.80;;
438;SDS011;206;48.782;9.252;2022-10-16T03:31:28;5.60;;;2.50;;
438;SDS011;206;48.782;9.252;2022-10-16T03:33:54;2.47;;;2.33;;
438;SDS011;206;48.782;9.252;2022-10-16T03:36:20;4.40;;;3.60;;
438;SDS011;206;48.782;9.252;2022-10-16T03:38:45;4.33;;;2.80;;
438;SDS011;206;48.782;9.252;2022-10-16T03:41:11;3.47;;;2.20;;
438;SDS011;206;48.782;9.252;2022-10-16T03:43:36;3.10;;;2.90;;
438;SDS011;206;48.782;9.252;2022-10-16T03:46:02;5.80;;;2.37;;
438;SDS011;206;48.782;9.252;2022-10-16T03:48:28;7.13;;;3.33;;
438;SDS011;206;48.782;9.252;2022-10-16T03:50:54;3.43;;;2.43;;
438;SDS011;206;48.782;9.252;2022-10-16T03:53:19;7.63;;;2.73;;
438;SDS011;206;48.782;9.252;2022-10-16T03:55:45;6.87;;;2.63;;
438;SDS011;206;48.782;9.252;2022-10-16T03:58:11;2.07;;;1.93;;
438;SDS011;206;48.782;9.252;2022-10-16T04:00:46;15.00;;;2.80;;
438;SDS011;206;48.782;9.252;2022-10-16T04:03:14;3.60;;;2.20;;
438;SDS011;206;48.782;9.252;2022-10-16T04:05:40;9.07;;;2.50;;
438;SDS011;206;48.782;9.252;2022-10-16T04:08:06;10.10;;;2.83;;
438;SDS011;206;48.782;9.252;2022-10-16T04:10:32;2.83;;;1.93;;
438;SDS011;206;48.782;9.252;2022-10-16T04:12:57;9.23;;;2.40;;
438;SDS011;206;48.782;9.252;2022-10-16T04:15:23;2.37;;;2.13;;
438;SDS011;206;48.782;9.252;2022-10-16T04:17:50;2.37;;;1.93;;
438;SDS011;206;48.782;9.252;2022-10-16T04:20:16;4.87;;;2.03;;
438;SDS011;206;48.782;9.252;2022-10-16T04:22:42;2.73;;;2.53;;
438;SDS011;206;48.782;9.252;2022-10-16T04:25:08;4.27;;;2.03;;
438;SDS011;206;48.782;9.252;2022-10-16T04:27:34;3.47;;;2.03;;
438;SDS011;206;48.782;9.252;2022-10-16T04:29:59;4.07;;;2.40;;
438;SDS011;206;48.782;9.252;2022-10-16T04:32:26;2.73;;;2.50;;
438;SDS011;206;48.782;9.252;2022-10-16T04:34:51;4.40;;;2.67;;
438;SDS011;206;48.782;9.252;2022-10-16T04:37:17;3.40;;;2.50;;
438;SDS011;206;48.782;9.252;2022-10-16T04:39:43;3.70;;;2.70;;
438;SDS011;206;48.782;9.252;2022-10-16T04:42:09;5.93;;;2.50;;
438;SDS011;206;48.782;9.252;2022-10-16T04:44:35;3.47;;;2.23;;
438;SDS011;206;48.782;9.252;2022-10-16T04:47:01;4.10;;;2.00;;
438;SDS011;206;48.782;9.252;2022-10-16T04:49:26;3.53;;;2.30;;
438;SDS011;206;48.782;9.252;2022-10-16T04:51:52;9.13;;;3.10;;
438;SDS011;206;48.782;9.252;2022-10-16T04:54:18;6.00;;;2.70;;
438;SDS011;206;48.782;9.252;2022-10-16T04:56:43;3.70;;;2.30;;
438;SDS011;206;48.782;9.252;2022-10-16T04:59:12;4.47;;;2.73;;
438;SDS011;206;48.782;9.252;2022-10-16T05:01:39;9.40;;;2.80;;
438;SDS011;206;48.782;9.252;2022-10-16T05:04:05;2.70;;;2.53;;
438;SDS011;206;48.782;9.252;2022-10-16T05:06:30;3.63;;;2.73;;
438;SDS011;206;48.782;9.252;2022-10-16T05:08:56;4.23;;;2.80;;
438;SDS011;206;48.782;9.252;2022-10-16T05:11:21;3.10;;;2.50;;
438;SDS011;206;48.782;9.252;2022-10-16T05:13:47;6.57;;;2.93;;
438;SDS011;206;48.782;9.252;2022-10-16T05:16:13;2.60;;;1.90;;
438;SDS011;206;48.782;9.252;2022-10-16T05:18:38;3.43;;;2.80;;
438;SDS011;206;48.782;9.252;2022-10-16T05:21:04;4.30;;;2.43;;
438;SDS011;206;48.782;9.252;2022-10-16T05:23:30;6.60;;;3.50;;
438;SDS011;206;48.782;9.252;2022-10-16T05:25:56;9.53;;;3.03;;
438;SDS011;206;48.782;9.252;2022-10-16T05:28:24;6.20;;;2.83;;
438;SDS011;206;48.782;9.252;2022-10-16T05:30:53;3.00;;;2.30;;
438;SDS011;206;48.782;9.252;2022-10-16T05:33:22;3.80;;;3.20;;
438;SDS011;206;48.782;9.252;2022-10-16T05:35:49;6.70;;;2.80;;
438;SDS011;206;48.782;9.252;2022-10-16T05:38:16;3.67;;;2.30;;
438;SDS011;206;48.782;9.252;2022-10-16T05:40:42;6.03;;;2.70;;
438;SDS011;206;48.782;9.252;2022-10-16T05:43:08;2.67;;;2.20;;
438;SDS011;206;48.782;9.252;2022-10-16T05:45:33;5.13;;;2.93;;
438;SDS011;206;48.782;9.252;2022-10-16T05:47:59;2.50;;;2.20;;
438;SDS011;206;48.782;9.252;2022-10-16T05:50:25;4.90;;;3.27;;
438;SDS011;206;48.782;9.252;2022-10-16T05:52:51;6.30;;;2.80;;
438;SDS011;206;48.782;9.252;2022-10-16T05:55:17;2.47;;;2.30;;
438;SDS011;206;48.782;9.252;2022-10-16T05:57:42;3.50;;;2.50;;
438;SDS011;206;48.782;9.252;2022-10-16T06:00:08;6.83;;;3.00;;
438;SDS011;206;48.782;9.252;2022-10-16T06:02:35;2.80;;;2.63;;
438;SDS011;206;48.782;9.252;2022-10-16T06:05:00;5.03;;;3.00;;
438;SDS011;206;48.782;9.252;2022-10-16T06:07:26;2.00;;;1.80;;
438;SDS011;206;48.782;9.252;2022-10-16T06:09:52;2.90;;;2.53;;
438;SDS011;206;48.782;9.252;2022-10-16T06:12:18;5.33;;;2.30;;
438;SDS011;206;48.782;9.252;2022-10-16T06:14:44;5.80;;;2.50;;
438;SDS011;206;48.782;9.252;2022-10-16T06:17:12;9.43;;;2.97;;
438;SDS011;206;48.782;9.252;2022-10-16T06:19:38;3.73;;;2.87;;
438;SDS011;206;48.782;9.252;2022-10-16T06:22:04;3.80;;;2.40;;
438;SDS011;206;48.782;9.252;2022-10-16T06:24:29;7.00;;;2.90;;
438;SDS011;206;48.782;9.252;2022-10-16T06:26:55;5.70;;;2.67;;
438;SDS011;206;48.782;9.252;2022-10-16T06:29:20;8.63;;;3.40;;
438;SDS011;206;48.782;9.252;2022-10-16T06:31:46;4.30;;;2.87;;
438;SDS011;206;48.782;9.252;2022-10-16T06:34:12;4.43;;;3.27;;
438;SDS011;206;48.782;9.252;2022-10-16T06:36:38;6.30;;;2.73;;
438;SDS011;206;48.782;9.252;2022-10-16T06:39:04;3.80;;;2.30;;
438;SDS011;206;48.782;9.252;2022-10-16T06:41:31;3.30;;;2.50;;
438;SDS011;206;48.782;9.252;2022-10-16T06:43:57;2.50;;;2.10;;
438;SDS011;206;48.782;9.252;2022-10-16T06:46:23;4.57;;;3.30;;
438;SDS011;206;48.782;9.252;2022-10-16T06:48:49;3.90;;;2.90;;
438;SDS011;206;48.782;9.252;2022-10-16T06:51:17;6.40;;;3.20;;
438;SDS011;206;48.782;9.252;2022-10-16T06:53:45;4.97;;;2.83;;
438;SDS011;206;48.782;9.252;2022-10-16T06:56:32;4.30;;;2.70;;
438;SDS011;206;48.782;9.252;2022-10-16T06:58:59;5.70;;;2.13;;
438;SDS011;206;48.782;9.252;2022-10-16T07:01:25;3.23;;;2.80;;
438;SDS011;206;48.782;9.252;2022-10-16T07:03:51;6.50;;;2.90;;
438;SDS011;206;48.782;9.252;2022-10-16T07:06:19;2.57;;;1.80;;
438;SDS011;206;48.782;9.252;2022-10-16T07:08:46;6.20;;;3.93;;
438;SDS011;206;48.782;9.252;2022-10-16T07:11:13;3.53;;;2.50;;
438;SDS011;206;48.782;9.252;2022-10-16T07:13:40;9.70;;;3.37;;
438;SDS011;206;48.782;9.252;2022-10-16T07:18:37;3.60;;;2.43;;
438;SDS011;206;48.782;9.252;2022-10-16T07:21:05;5.07;;;2.67;;
438;SDS011;206;48.782;9.252;2022-10-16T07:23:32;2.40;;;1.87;;
438;SDS011;206;48.782;9.252;2022-10-16T07:25:58;4.70;;;3.17;;
438;SDS011;206;48.782;9.252;2022-10-16T07:28:23;4.80;;;2.27;;
438;SDS011;206;48.782;9.252;2022-10-16T07:30:49;3.93;;;2.87;;
438;SDS011;206;48.782;9.252;2022-10-16T07:33:15;5.70;;;2.63;;
438;SDS011;206;48.782;9.252;2022-10-16T07:35:48;3.67;;;2.50;;
438;SDS011;206;48.782;9.252;2022-10-16T07:38:17;3.50;;;2.30;;
438;SDS011;206;48.782;9.252;2022-10-16T07:40:43;4.83;;;2.53;;
438;SDS011;206;48.782;9.252;2022-10-16T07:43:09;5.53;;;2.47;;
438;SDS011;206;48.782;9.252;2022-10-16T07:45:35;6.80;;;2.93;;
438;SDS011;206;48.782;9.252;2022-10-16T07:48:00;3.03;;;2.83;;
438;SDS011;206;48.782;9.252;2022-10-16T07:50:26;7.33;;;2.37;;
438;SDS011;206;48.782;9.252;2022-10-16T07:52:52;8.40;;;3.60;;
438;SDS011;206;48.782;9.252;2022-10-16T07:55:17;9.20;;;2.77;;
438;SDS011;206;48.782;9.252;2022-10-16T07:57:43;9.70;;;3.97;;
438;SDS011;206;48.782;9.252;2022-10-16T08:00:08;4.37;;;1.93;;
438;SDS011;206;48.782;9.252;2022-10-16T08:02:38;4.53;;;2.43;;
438;SDS011;206;48.782;9.252;2022-10-16T08:05:05;2.80;;;2.23;;
438;SDS011;206;48.782;9.252;2022-10-16T08:07:31;4.10;;;2.70;;
438;SDS011;206;48.782;9.252;2022-10-16T08:09:56;4.43;;;2.33;;
438;SDS011;206;48.782;9.252;2022-10-16T08:12:23;6.00;;;2.63;;
438;SDS011;206;48.782;9.252;2022-10-16T08:14:49;5.47;;;3.00;;
438;SDS011;206;48.782;9.252;2022-10-16T08:17:15;4.73;;;2.07;;
438;SDS011;206;48.782;9.252;2022-10-16T08:19:43;2.60;;;2.40;;
438;SDS011;206;48.782;9.252;2022-10-16T08:22:15;2.13;;;1.97;;
438;SDS011;206;48.782;9.252;2022-10-16T08:24:40;2.73;;;2.53;;
438;SDS011;206;48.782;9.252;2022-10-16T08:27:06;5.93;;;2.17;;
438;SDS011;206;48.782;9.252;2022-10-16T08:29:33;2.43;;;2.03;;
438;SDS011;206;48.782;9.252;2022-10-16T08:31:59;3.50;;;2.10;;
438;SDS011;206;48.782;9.252;2022-10-16T08:34:25;3.93;;;1.57;;
438;SDS011;206;48.782;9.252;2022-10-16T08:36:52;6.47;;;2.10;;
438;SDS011;206;48.782;9.252;2022-10-16T08:39:19;2.00;;;1.93;;
438;SDS011;206;48.782;9.252;2022-10-16T08:42:03;4.63;;;2.00;;
438;SDS011;206;48.782;9.252;2022-10-16T08:50:09;2.90;;;1.93;;
438;SDS011;206;48.782;9.252;2022-10-16T08:52:38;3.83;;;2.00;;
438;SDS011;206;48.782;9.252;2022-10-16T08:55:08;2.37;;;1.63;;
438;SDS011;206;48.782;9.252;2022-10-16T08:57:57;2.13;;;1.73;;
438;SDS011;206;48.782;9.252;2022-10-16T09:00:23;2.40;;;1.47;;
438;SDS011;206;48.782;9.252;2022-10-16T09:10:59;2.27;;;1.90;;
438;SDS011;206;48.782;9.252;2022-10-16T09:13:43;5.30;;;2.00;;
438;SDS011;206;48.782;9.252;2022-10-16T09:16:19;9.40;;;1.70;;
438;SDS011;206;48.782;9.252;2022-10-16T09:18:59;4.27;;;2.07;;
438;SDS011;206;48.782;9.252;2022-10-16T09:21:38;4.73;;;2.10;;
438;SDS011;206;48.782;9.252;2022-10-16T09:24:13;3.30;;;1.90;;
438;SDS011;206;48.782;9.252;2022-10-16T09:26:44;2.53;;;1.30;;
438;SDS011;206;48.782;9.252;2022-10-16T09:29:14;1.90;;;1.53;;
438;SDS011;206;48.782;9.252;2022-10-16T09:31:42;3.03;;;1.83;;
438;SDS011;206;48.782;9.252;2022-10-16T09:34:15;2.43;;;1.97;;
438;SDS011;206;48.782;9.252;2022-10-16T09:36:57;2.53;;;1.70;;
438;SDS011;206;48.782;9.252;2022-10-16T09:39:25;4.80;;;1.97;;
438;SDS011;206;48.782;9.252;2022-10-16T09:41:51;1.63;;;1.57;;
438;SDS011;206;48.782;9.252;2022-10-16T09:44:24;3.73;;;1.30;;
438;SDS011;206;48.782;9.252;2022-10-16T09:47:00;2.03;;;1.87;;
438;SDS011;206;48.782;9.252;2022-10-16T09:49:28;2.27;;;1.60;;
438;SDS011;206;48.782;9.252;2022-10-16T09:52:09;3.50;;;1.80;;
438;SDS011;206;48.782;9.252;2022-10-16T09:54:37;2.63;;;1.10;;
438;SDS011;206;48.782;9.252;2022-10-16T09:57:13;3.80;;;1.80;;
438;SDS011;206;48.782;9.252;2022-10-16T09:59:46;2.50;;;1.70;;
438;SDS011;206;48.782;9.252;2022-10-16T10:02:16;3.17;;;1.93;;
438;SDS011;206;48.782;9.252;2022-10-16T10:05:04;3.37;;;1.70;;
438;SDS011;206;48.782;9.252;2022-10-16T10:07:39;2.47;;;1.50;;
438;SDS011;206;48.782;9.252;2022-10-16T10:10:19;2.00;;;1.13;;
438;SDS011;206;48.782;9.252;2022-10-16T10:12:47;1.90;;;1.47;;
438;SDS011;206;48.782;9.252;2022-10-16T10:15:13;1.87;;;1.50;;
438;SDS011;206;48.782;9.252;2022-10-16T10:17:50;2.63;;;1.47;;
438;SDS011;206;48.782;9.252;2022-10-16T10:20:28;4.60;;;2.00;;
438;SDS011;206;48.782;9.252;2022-10-16T10:22:59;4.17;;;1.57;;
438;SDS011;206;48.782;9.252;2022-10-16T10:25:29;3.73;;;1.70;;
438;SDS011;206;48.782;9.252;2022-10-16T10:31:06;1.80;;;1.50;;
438;SDS011;206;48.782;9.252;2022-10-16T10:37:04;2.90;;;1.40;;
438;SDS011;206;48.782;9.252;2022-10-16T10:39:49;1.90;;;1.67;;
438;SDS011;206;48.782;9.252;2022-10-16T10:42:36;3.10;;;1.43;;
438;SDS011;206;48.782;9.252;2022-10-16T10:46:05;2.70;;;1.47;;
438;SDS011;206;48.782;9.252;2022-10-16T10:50:57;2.07;;;1.77;;
438;SDS011;206;48.782;9.252;2022-10-16T11:07:50;4.23;;;1.80;;
438;SDS011;206;48.782;9.252;2022-10-16T11:10:22;10.23;;;2.10;;
438;SDS011;206;48.782;9.252;2022-10-16T11:12:57;3.17;;;1.37;;
438;SDS011;206;48.782;9.252;2022-10-16T11:15:31;2.37;;;1.70;;
438;SDS011;206;48.782;9.252;2022-10-16T11:18:04;2.13;;;1.40;;
438;SDS011;206;48.782;9.252;2022-10-16T11:20:42;1.97;;;1.57;;
438;SDS011;206;48.782;9.252;2022-10-16T11:26:04;1.90;;;1.20;;
438;SDS011;206;48.782;9.252;2022-10-16T11:28:37;2.47;;;1.30;;
438;SDS011;206;48.782;9.252;2022-10-16T11:38:59;1.97;;;1.40;;
438;SDS011;206;48.782;9.252;2022-10-16T11:41:43;2.60;;;1.70;;
438;SDS011;206;48.782;9.252;2022-10-16T11:44:16;1.97;;;1.90;;
438;SDS011;206;48.782;9.252;2022-10-16T11:49:27;1.83;;;1.13;;
438;SDS011;206;48.782;9.252;2022-10-16T11:54:49;4.67;;;1.20;;
438;SDS011;206;48.782;9.252;2022-10-16T11:57:26;1.47;;;1.20;;
438;SDS011;206;48.782;9.252;2022-10-16T12:10:39;2.27;;;1.50;;
438;SDS011;206;48.782;9.252;2022-10-16T12:16:19;8.67;;;1.80;;
438;SDS011;206;48.782;9.252;2022-10-16T12:18:47;1.87;;;1.77;;
438;SDS011;206;48.782;9.252;2022-10-16T12:21:14;2.10;;;1.63;;
438;SDS011;206;48.782;9.252;2022-10-16T12:28:55;1.80;;;1.50;;
438;SDS011;206;48.782;9.252;2022-10-16T12:31:22;3.60;;;1.60;;
438;SDS011;206;48.782;9.252;2022-10-16T12:33:59;2.33;;;1.23;;
438;SDS011;206;48.782;9.252;2022-10-16T12:36:31;2.50;;;2.13;;
438;SDS011;206;48.782;9.252;2022-10-16T12:38:58;3.60;;;1.20;;
438;SDS011;206;48.782;9.252;2022-10-16T12:41:29;4.27;;;1.67;;
438;SDS011;206;48.782;9.252;2022-10-16T12:44:00;1.40;;;1.20;;
438;SDS011;206;48.782;9.252;2022-10-16T12:51:38;2.60;;;1.40;;
438;SDS011;206;48.782;9.252;2022-10-16T12:56:42;3.60;;;1.70;;
438;SDS011;206;48.782;9.252;2022-10-16T12:59:44;2.50;;;1.53;;
438;SDS011;206;48.782;9.252;2022-10-16T13:05:25;2.77;;;1.33;;
438;SDS011;206;48.782;9.252;2022-10-16T13:08:05;1.77;;;1.40;;
438;SDS011;206;48.782;9.252;2022-10-16T13:13:26;3.47;;;1.77;;
438;SDS011;206;48.782;9.252;2022-10-16T13:26:42;4.70;;;3.93;;
438;SDS011;206;48.782;9.252;2022-10-16T13:29:18;2.63;;;1.63;;
438;SDS011;206;48.782;9.252;2022-10-16T13:31:44;3.00;;;1.70;;
438;SDS011;206;48.782;9.252;2022-10-16T13:34:17;6.50;;;2.47;;
438;SDS011;206;48.782;9.252;2022-10-16T13:36:49;4.50;;;1.60;;
438;SDS011;206;48.782;9.252;2022-10-16T13:39:24;3.27;;;1.80;;
438;SDS011;206;48.782;9.252;2022-10-16T13:42:10;6.03;;;1.60;;
438;SDS011;206;48.782;9.252;2022-10-16T13:44:40;9.47;;;1.47;;
438;SDS011;206;48.782;9.252;2022-10-16T13:47:15;4.30;;;1.50;;
438;SDS011;206;48.782;9.252;2022-10-16T13:49:46;3.73;;;2.17;;
438;SDS011;206;48.782;9.252;2022-10-16T13:52:23;4.13;;;1.70;;
438;SDS011;206;48.782;9.252;2022-10-16T13:54:49;1.80;;;1.70;;
438;SDS011;206;48.782;9.252;2022-10-16T13:57:15;5.63;;;2.33;;
438;SDS011;206;48.782;9.252;2022-10-16T13:59:41;2.37;;;1.70;;
438;SDS011;206;48.782;9.252;2022-10-16T14:05:00;2.70;;;1.93;;
438;SDS011;206;48.782;9.252;2022-10-16T14:07:28;2.97;;;1.43;;
438;SDS011;206;48.782;9.252;2022-10-16T14:09:56;5.63;;;1.77;;
438;SDS011;206;48.782;9.252;2022-10-16T14:12:28;1.67;;;1.60;;
438;SDS011;206;48.782;9.252;2022-10-16T14:14:54;2.90;;;1.63;;
438;SDS011;206;48.782;9.252;2022-10-16T14:17:29;1.87;;;1.60;;
438;SDS011;206;48.782;9.252;2022-10-16T14:20:00;4.83;;;2.00;;
438;SDS011;206;48.782;9.252;2022-10-16T14:22:33;3.17;;;1.47;;
438;SDS011;206;48.782;9.252;2022-10-16T14:25:01;1.37;;;1.20;;
438;SDS011;206;48.782;9.252;2022-10-16T14:27:41;2.77;;;1.43;;
438;SDS011;206;48.782;9.252;2022-10-16T14:32:32;4.00;;;1.93;;
438;SDS011;206;48.782;9.252;2022-10-16T14:34:59;3.63;;;2.40;;
438;SDS011;206;48.782;9.252;2022-10-16T14:37:26;2.83;;;1.83;;
438;SDS011;206;48.782;9.252;2022-10-16T14:39:53;1.90;;;1.37;;
438;SDS011;206;48.782;9.252;2022-10-16T14:42:20;4.87;;;1.93;;
438;SDS011;206;48.782;9.252;2022-10-16T14:44:50;4.83;;;1.97;;
438;SDS011;206;48.782;9.252;2022-10-16T14:47:18;3.93;;;1.97;;
438;SDS011;206;48.782;9.252;2022-10-16T14:49:49;2.00;;;1.83;;
438;SDS011;206;48.782;9.252;2022-10-16T14:52:20;2.30;;;1.53;;
438;SDS011;206;48.782;9.252;2022-10-16T14:54:49;2.60;;;1.67;;
438;SDS011;206;48.782;9.252;2022-10-16T14:57:16;2.07;;;1.93;;
438;SDS011;206;48.782;9.252;2022-10-16T14:59:48;1.90;;;1.53;;
438;SDS011;206;48.782;9.252;2022-10-16T15:04:56;5.03;;;2.60;;
438;SDS011;206;48.782;9.252;2022-10-16T15:07:23;5.43;;;3.10;;
438;SDS011;206;48.782;9.252;2022-10-16T15:09:49;5.17;;;2.57;;
438;SDS011;206;48.782;9.252;2022-10-16T15:12:15;3.20;;;2.20;;
438;SDS011;206;48.782;9.252;2022-10-16T15:14:41;2.00;;;1.90;;
438;SDS011;206;48.782;9.252;2022-10-16T15:17:09;3.83;;;2.03;;
438;SDS011;206;48.782;9.252;2022-10-16T15:19:36;3.57;;;2.40;;
438;SDS011;206;48.782;9.252;2022-10-16T15:22:01;3.47;;;3.30;;
438;SDS011;206;48.782;9.252;2022-10-16T15:24:27;3.10;;;2.70;;
438;SDS011;206;48.782;9.252;2022-10-16T15:26:52;6.53;;;3.20;;
438;SDS011;206;48.782;9.252;2022-10-16T15:29:18;3.73;;;2.60;;
438;SDS011;206;48.782;9.252;2022-10-16T15:31:44;3.23;;;2.33;;
438;SDS011;206;48.782;9.252;2022-10-16T15:34:12;2.67;;;2.50;;
438;SDS011;206;48.782;9.252;2022-10-16T15:36:38;2.60;;;2.40;;
438;SDS011;206;48.782;9.252;2022-10-16T15:39:25;5.10;;;2.23;;
438;SDS011;206;48.782;9.252;2022-10-16T15:41:50;3.10;;;1.93;;
438;SDS011;206;48.782;9.252;2022-10-16T15:44:18;2.90;;;2.73;;
438;SDS011;206;48.782;9.252;2022-10-16T15:46:44;3.30;;;3.20;;
438;SDS011;206;48.782;9.252;2022-10-16T15:49:10;3.33;;;2.13;;
438;SDS011;206;48.782;9.252;2022-10-16T15:51:40;7.77;;;2.20;;
438;SDS011;206;48.782;9.252;2022-10-16T15:54:07;3.20;;;1.87;;
438;SDS011;206;48.782;9.252;2022-10-16T15:56:33;2.20;;;1.90;;
438;SDS011;206;48.782;9.252;2022-10-16T15:59:01;5.10;;;2.50;;
438;SDS011;206;48.782;9.252;2022-10-16T16:01:27;2.87;;;1.53;;
438;SDS011;206;48.782;9.252;2022-10-16T16:03:56;4.20;;;2.13;;
438;SDS011;206;48.782;9.252;2022-10-16T16:06:22;2.97;;;2.10;;
438;SDS011;206;48.782;9.252;2022-10-16T16:08:49;5.23;;;2.37;;
438;SDS011;206;48.782;9.252;2022-10-16T16:11:16;4.17;;;2.00;;
438;SDS011;206;48.782;9.252;2022-10-16T16:13:42;4.20;;;2.80;;
438;SDS011;206;48.782;9.252;2022-10-16T16:16:09;2.90;;;2.23;;
438;SDS011;206;48.782;9.252;2022-10-16T16:18:36;3.37;;;1.77;;
438;SDS011;206;48.782;9.252;2022-10-16T16:21:02;3.70;;;2.67;;
438;SDS011;206;48.782;9.252;2022-10-16T16:23:28;7.63;;;2.60;;
438;SDS011;206;48.782;9.252;2022-10-16T16:28:35;2.87;;;2.07;;
438;SDS011;206;48.782;9.252;2022-10-16T16:31:01;3.43;;;2.67;;
438;SDS011;206;48.782;9.252;2022-10-16T16:33:28;3.53;;;2.73;;
438;SDS011;206;48.782;9.252;2022-10-16T16:35:57;3.60;;;3.07;;
438;SDS011;206;48.782;9.252;2022-10-16T16:38:26;5.60;;;3.60;;
438;SDS011;206;48.782;9.252;2022-10-16T16:40:52;3.50;;;2.80;;
438;SDS011;206;48.782;9.252;2022-10-16T16:43:19;6.50;;;3.80;;
438;SDS011;206;48.782;9.252;2022-10-16T16:45:48;3.57;;;3.00;;
438;SDS011;206;48.782;9.252;2022-10-16T16:48:14;7.00;;;3.27;;
438;SDS011;206;48.782;9.252;2022-10-16T16:50:39;4.67;;;3.37;;
438;SDS011;206;48.782;9.252;2022-10-16T16:53:05;4.20;;;3.13;;
438;SDS011;206;48.782;9.252;2022-10-16T16:55:32;10.63;;;3.00;;
438;SDS011;206;48.782;9.252;2022-10-16T16:57:58;5.37;;;3.93;;
438;SDS011;206;48.782;9.252;2022-10-16T17:00:23;9.20;;;3.80;;
438;SDS011;206;48.782;9.252;2022-10-16T17:02:49;6.47;;;4.03;;
438;SDS011;206;48.782;9.252;2022-10-16T17:05:16;6.17;;;3.97;;
438;SDS011;206;48.782;9.252;2022-10-16T17:07:42;7.90;;;3.63;;
438;SDS011;206;48.782;9.252;2022-10-16T17:10:07;6.27;;;4.37;;
438;SDS011;206;48.782;9.252;2022-10-16T17:12:33;5.30;;;3.83;;
438;SDS011;206;48.782;9.252;2022-10-16T17:14:59;3.10;;;2.90;;
438;SDS011;206;48.782;9.252;2022-10-16T17:17:25;9.63;;;4.00;;
438;SDS011;206;48.782;9.252;2022-10-16T17:19:51;9.90;;;3.80;;
438;SDS011;206;48.782;9.252;2022-10-16T17:22:17;11.00;;;5.73;;
438;SDS011;206;48.782;9.252;2022-10-16T17:24:44;7.17;;;3.30;;
438;SDS011;206;48.782;9.252;2022-10-16T17:27:14;8.77;;;5.17;;
438;SDS011;206;48.782;9.252;2022-10-16T17:29:40;9.73;;;4.60;;
438;SDS011;206;48.782;9.252;2022-10-16T17:32:06;4.77;;;4.40;;
438;SDS011;206;48.782;9.252;2022-10-16T17:34:31;10.50;;;4.13;;
438;SDS011;206;48.782;9.252;2022-10-16T17:36:57;8.50;;;4.40;;
438;SDS011;206;48.782;9.252;2022-10-16T17:39:23;7.83;;;3.73;;
438;SDS011;206;48.782;9.252;2022-10-16T17:41:48;14.23;;;5.07;;
438;SDS011;206;48.782;9.252;2022-10-16T17:44:14;5.40;;;4.37;;
438;SDS011;206;48.782;9.252;2022-10-16T17:46:50;9.73;;;3.60;;
438;SDS011;206;48.782;9.252;2022-10-16T17:49:17;13.80;;;4.73;;
438;SDS011;206;48.782;9.252;2022-10-16T17:51:43;6.80;;;4.83;;
438;SDS011;206;48.782;9.252;2022-10-16T17:54:09;8.80;;;3.80;;
438;SDS011;206;48.782;9.252;2022-10-16T17:56:36;6.97;;;4.03;;
438;SDS011;206;48.782;9.252;2022-10-16T17:59:02;6.83;;;4.77;;